createdAt,value
2023-05-20T00:00:56.501Z,19.60
2023-05-20T00:03:25.890Z,19.60
2023-05-20T00:05:54.395Z,19.60
2023-05-20T00:08:22.489Z,19.60
2023-05-20T00:10:50.422Z,19.50
2023-05-20T00:13:18.402Z,19.60
2023-05-20T00:15:46.994Z,19.60
2023-05-20T00:18:14.948Z,19.60
2023-05-20T00:20:44.223Z,19.60
2023-05-20T00:23:12.216Z,19.50
2023-05-20T00:25:40.166Z,19.50
2023-05-20T00:28:08.264Z,19.50
2023-05-20T00:30:36.351Z,19.50
2023-05-20T00:33:04.548Z,19.50
2023-05-20T00:35:32.642Z,19.50
2023-05-20T00:38:02.372Z,19.50
2023-05-20T00:40:30.439Z,19.50
2023-05-20T00:42:58.397Z,19.50
2023-05-20T00:45:27.165Z,19.50
2023-05-20T00:47:59.591Z,19.50
2023-05-20T00:50:28.241Z,19.50
2023-05-20T00:52:56.758Z,19.50
2023-05-20T00:55:27.057Z,19.40
2023-05-20T00:57:55.673Z,19.50
2023-05-20T01:00:24.100Z,19.50
2023-05-20T01:02:52.347Z,19.50
2023-05-20T01:05:20.644Z,19.50
2023-05-20T01:07:48.679Z,19.40
2023-05-20T01:10:16.710Z,19.50
2023-05-20T01:12:53.909Z,19.40
2023-05-20T01:15:25.158Z,19.40
2023-05-20T01:18:01.407Z,19.40
2023-05-20T01:20:32.456Z,19.40
2023-05-20T01:23:02.612Z,19.40
2023-05-20T01:25:30.862Z,19.40
2023-05-20T01:27:59.569Z,19.40
2023-05-20T01:30:34.563Z,19.30
2023-05-20T01:33:08.618Z,19.30
2023-05-20T01:35:37.572Z,19.30
2023-05-20T01:38:08.735Z,19.30
2023-05-20T01:40:37.309Z,19.30
2023-05-20T01:43:06.859Z,19.30
2023-05-20T01:45:34.945Z,19.30
2023-05-20T01:48:03.930Z,19.30
2023-05-20T01:50:32.042Z,19.30
2023-05-20T01:52:59.992Z,19.30
2023-05-20T01:55:29.380Z,19.30
2023-05-20T01:57:57.360Z,19.30
2023-05-20T02:00:25.554Z,19.20
2023-05-20T02:02:53.527Z,19.20
2023-05-20T02:05:21.549Z,19.20
2023-05-20T02:07:49.512Z,19.20
2023-05-20T02:10:17.804Z,19.20
2023-05-20T02:12:48.041Z,19.20
2023-05-20T02:15:16.433Z,19.20
2023-05-20T02:17:44.480Z,19.20
2023-05-20T02:20:13.790Z,19.20
2023-05-20T02:22:41.798Z,19.20
2023-05-20T02:25:12.060Z,19.20
2023-05-20T02:27:40.686Z,19.20
2023-05-20T02:30:11.207Z,19.10
2023-05-20T02:32:39.216Z,19.10
2023-05-20T02:35:08.276Z,19.10
2023-05-20T02:37:36.224Z,19.10
2023-05-20T02:40:05.073Z,19.10
2023-05-20T02:42:33.090Z,19.00
2023-05-20T02:45:01.112Z,19.00
2023-05-20T02:47:30.635Z,19.00
2023-05-20T02:49:58.625Z,19.00
2023-05-20T02:52:26.822Z,19.00
2023-05-20T02:54:54.760Z,19.00
2023-05-20T02:57:23.134Z,18.90
2023-05-20T02:59:52.381Z,18.90
2023-05-20T03:02:20.397Z,18.90
2023-05-20T03:04:50.631Z,18.90
2023-05-20T03:07:19.697Z,18.90
2023-05-20T03:09:47.803Z,18.90
2023-05-20T03:12:15.823Z,18.90
2023-05-20T03:14:43.754Z,18.90
2023-05-20T03:17:12.404Z,18.80
2023-05-20T03:19:41.370Z,18.80
2023-05-20T03:22:10.720Z,18.80
2023-05-20T03:24:38.641Z,18.80
2023-05-20T03:27:07.146Z,18.80
2023-05-20T03:29:36.223Z,18.80
2023-05-20T03:32:04.325Z,18.70
2023-05-20T03:34:32.293Z,18.80
2023-05-20T03:37:01.856Z,18.80
2023-05-20T03:39:31.913Z,18.70
2023-05-20T03:41:59.873Z,18.70
2023-05-20T03:44:27.985Z,18.70
2023-05-20T03:46:55.942Z,18.70
2023-05-20T03:49:23.929Z,18.70
2023-05-20T03:51:52.688Z,18.70
2023-05-20T03:54:20.637Z,18.60
2023-05-20T03:56:53.015Z,18.60
2023-05-20T03:59:22.304Z,18.60
2023-05-20T04:01:50.507Z,18.60
2023-05-20T04:04:18.620Z,18.60
2023-05-20T04:06:46.653Z,18.60
2023-05-20T04:09:14.653Z,18.60
2023-05-20T04:11:43.299Z,18.50
2023-05-20T04:14:12.644Z,18.60
2023-05-20T04:16:40.754Z,18.60
2023-05-20T04:19:09.060Z,18.60
2023-05-20T04:21:37.474Z,18.60
2023-05-20T04:24:06.852Z,18.60
2023-05-20T04:26:35.390Z,18.50
2023-05-20T04:29:04.209Z,18.60
2023-05-20T04:31:33.857Z,18.60
2023-05-20T04:34:02.740Z,18.60
2023-05-20T04:36:32.453Z,18.60
2023-05-20T04:39:03.658Z,18.60
2023-05-20T04:41:31.835Z,18.60
2023-05-20T04:44:01.474Z,18.60
2023-05-20T04:46:29.999Z,18.60
2023-05-20T04:49:00.620Z,18.60
2023-05-20T04:51:29.437Z,18.60
2023-05-20T04:53:58.962Z,18.60
2023-05-20T04:56:29.892Z,18.60
2023-05-20T04:58:58.715Z,18.50
2023-05-20T05:01:26.799Z,18.50
2023-05-20T05:03:54.835Z,18.50
2023-05-20T05:06:24.129Z,18.50
2023-05-20T05:08:52.112Z,18.50
2023-05-20T05:11:20.157Z,18.50
2023-05-20T05:13:48.507Z,18.60
2023-05-20T05:16:16.569Z,18.50
2023-05-20T05:18:44.612Z,18.60
2023-05-20T05:21:12.713Z,18.60
2023-05-20T05:23:42.870Z,18.50
2023-05-20T05:26:10.950Z,18.50
2023-05-20T05:28:38.982Z,18.60
2023-05-20T05:31:07.302Z,18.50
2023-05-20T05:33:35.395Z,18.50
2023-05-20T05:36:04.865Z,18.50
2023-05-20T05:38:32.924Z,18.50
2023-05-20T05:41:02.531Z,18.50
2023-05-20T05:43:31.664Z,18.50
2023-05-20T05:46:00.251Z,18.50
2023-05-20T05:48:28.296Z,18.50
2023-05-20T05:50:56.728Z,18.50
2023-05-20T05:53:25.005Z,18.50
2023-05-20T05:55:53.423Z,18.50
2023-05-20T05:58:22.719Z,18.60
2023-05-20T06:00:54.778Z,18.60
2023-05-20T06:03:23.057Z,18.60
2023-05-20T06:05:51.291Z,18.60
2023-05-20T06:08:21.571Z,18.60
2023-05-20T06:10:50.244Z,18.60
2023-05-20T06:13:19.342Z,18.60
2023-05-20T06:15:51.091Z,18.60
2023-05-20T06:18:19.239Z,18.60
2023-05-20T06:20:47.789Z,18.60
2023-05-20T06:23:16.131Z,18.60
2023-05-20T06:25:58.834Z,18.60
2023-05-20T06:28:27.358Z,18.60
2023-05-20T06:30:57.774Z,18.60
2023-05-20T06:33:29.801Z,18.60
2023-05-20T06:36:02.375Z,18.60
2023-05-20T06:38:30.944Z,18.60
2023-05-20T06:40:58.927Z,18.60
2023-05-20T06:43:26.986Z,18.70
2023-05-20T06:46:05.818Z,18.60
2023-05-20T06:48:45.356Z,18.70
2023-05-20T06:51:14.051Z,18.70
2023-05-20T06:53:42.079Z,18.70
2023-05-20T06:56:10.059Z,18.80
2023-05-20T06:58:38.239Z,18.80
2023-05-20T07:01:07.739Z,18.80
2023-05-20T07:03:36.620Z,18.80
2023-05-20T07:06:05.021Z,18.80
2023-05-20T07:08:33.180Z,18.80
2023-05-20T07:11:01.966Z,18.80
2023-05-20T07:13:30.978Z,18.80
2023-05-20T07:15:59.812Z,18.90
2023-05-20T07:18:29.812Z,18.80
2023-05-20T07:20:58.378Z,18.90
2023-05-20T07:23:43.119Z,18.90
2023-05-20T07:26:11.289Z,18.90
2023-05-20T07:28:40.088Z,18.90
2023-05-20T07:31:08.267Z,18.90
2023-05-20T07:33:44.349Z,18.90
2023-05-20T07:36:12.663Z,18.90
2023-05-20T07:38:49.720Z,19.00
2023-05-20T07:41:24.924Z,19.00
2023-05-20T07:43:53.210Z,19.00
2023-05-20T07:46:21.605Z,19.00
2023-05-20T07:48:51.167Z,19.00
2023-05-20T07:51:19.813Z,19.00
2023-05-20T07:53:47.934Z,19.10
2023-05-20T07:56:16.299Z,19.10
2023-05-20T07:58:44.589Z,19.20
2023-05-20T08:01:12.690Z,19.20
2023-05-20T08:03:40.974Z,19.20
2023-05-20T08:06:14.515Z,19.30
2023-05-20T08:08:43.914Z,19.30
2023-05-20T08:11:19.567Z,19.40
2023-05-20T08:13:47.989Z,19.40
2023-05-20T08:16:17.714Z,19.50
2023-05-20T08:18:47.003Z,19.50
2023-05-20T08:21:17.175Z,19.50
2023-05-20T08:23:45.454Z,19.60
2023-05-20T08:26:13.431Z,19.60
2023-05-20T08:28:43.436Z,19.60
2023-05-20T08:31:29.674Z,19.70
2023-05-20T08:33:57.805Z,19.70
2023-05-20T08:36:27.209Z,19.70
2023-05-20T08:38:55.808Z,19.80
2023-05-20T08:41:24.891Z,19.80
2023-05-20T08:43:55.433Z,19.90
2023-05-20T08:46:24.635Z,19.90
2023-05-20T08:48:52.992Z,20.00
2023-05-20T08:51:23.905Z,20.00
2023-05-20T08:53:53.566Z,20.00
2023-05-20T08:56:23.580Z,20.20
2023-05-20T08:58:51.523Z,20.30
2023-05-20T09:01:19.609Z,20.30
2023-05-20T09:03:47.974Z,20.40
2023-05-20T09:06:20.351Z,20.40
2023-05-20T09:08:50.651Z,20.50
2023-05-20T09:11:21.717Z,20.50
2023-05-20T09:13:51.419Z,20.60
2023-05-20T09:16:19.758Z,20.70
2023-05-20T09:18:48.017Z,20.70
2023-05-20T09:21:16.394Z,20.70
2023-05-20T09:23:48.995Z,20.80
2023-05-20T09:26:19.478Z,20.80
2023-05-20T09:28:47.849Z,20.80
2023-05-20T09:31:16.422Z,20.90
2023-05-20T09:33:45.348Z,20.90
2023-05-20T09:36:16.672Z,20.90
2023-05-20T09:38:47.583Z,20.90
2023-05-20T09:41:16.841Z,20.90
2023-05-20T09:43:46.913Z,20.90
2023-05-20T09:46:16.589Z,20.90
2023-05-20T09:48:45.928Z,20.90
2023-05-20T09:51:15.657Z,20.90
2023-05-20T09:53:44.012Z,20.90
2023-05-20T09:56:12.394Z,20.90
2023-05-20T09:58:43.098Z,20.90
2023-05-20T10:01:12.433Z,20.90
2023-05-20T10:03:43.395Z,20.90
2023-05-20T10:06:37.586Z,20.90
2023-05-20T10:09:28.930Z,20.90
2023-05-20T10:12:21.506Z,20.90
2023-05-20T10:15:04.215Z,20.90
2023-05-20T10:17:46.088Z,20.90
2023-05-20T10:20:14.390Z,20.90
2023-05-20T10:22:42.372Z,20.90
2023-05-20T10:25:26.522Z,20.90
2023-05-20T10:28:07.951Z,20.90
2023-05-20T10:30:36.728Z,20.90
2023-05-20T10:33:08.059Z,20.90
2023-05-20T10:35:36.138Z,21.00
2023-05-20T10:38:12.652Z,21.00
2023-05-20T10:40:40.921Z,21.00
2023-05-20T10:43:12.773Z,21.00
2023-05-20T10:45:51.494Z,21.00
2023-05-20T10:48:26.641Z,21.00
2023-05-20T10:50:58.025Z,21.10
2023-05-20T10:53:33.275Z,21.10
2023-05-20T10:56:02.541Z,21.10
2023-05-20T10:58:40.222Z,21.10
2023-05-20T11:01:08.254Z,21.20
2023-05-20T11:03:38.386Z,21.20
2023-05-20T11:06:14.456Z,21.20
2023-05-20T11:08:45.015Z,21.20
2023-05-20T11:11:14.855Z,21.20
2023-05-20T11:13:44.014Z,21.30
2023-05-20T11:16:12.069Z,21.30
2023-05-20T11:18:41.355Z,21.30
2023-05-20T11:21:09.279Z,21.40
2023-05-20T11:23:40.445Z,21.40
2023-05-20T11:26:08.982Z,21.40
2023-05-20T11:28:37.418Z,21.40
2023-05-20T11:31:06.543Z,21.50
2023-05-20T11:33:34.600Z,21.50
2023-05-20T11:36:08.617Z,21.50
2023-05-20T11:38:43.001Z,21.50
2023-05-20T11:41:11.007Z,21.60
2023-05-20T11:43:39.056Z,21.60
2023-05-20T11:46:07.271Z,21.60
2023-05-20T11:48:35.224Z,21.70
2023-05-20T11:51:04.849Z,21.70
2023-05-20T11:53:32.835Z,21.80
2023-05-20T11:56:02.608Z,21.80
2023-05-20T11:58:32.178Z,21.80
2023-05-20T12:01:09.619Z,21.80
2023-05-20T12:03:49.450Z,21.90
2023-05-20T12:06:19.741Z,21.90
2023-05-20T12:08:48.377Z,21.90
2023-05-20T12:11:16.884Z,21.90
2023-05-20T12:13:44.812Z,22.00
2023-05-20T12:16:12.890Z,22.00
2023-05-20T12:18:41.021Z,22.00
2023-05-20T12:21:10.333Z,22.00
2023-05-20T12:23:39.788Z,22.00
2023-05-20T12:26:07.863Z,22.10
2023-05-20T12:28:36.247Z,22.10
2023-05-20T12:31:04.341Z,22.10
2023-05-20T12:33:32.521Z,22.20
2023-05-20T12:36:00.827Z,22.20
2023-05-20T12:38:28.894Z,22.20
2023-05-20T12:40:58.165Z,22.30
2023-05-20T12:43:26.263Z,22.30
2023-05-20T12:45:54.485Z,22.30
2023-05-20T12:48:22.638Z,22.40
2023-05-20T12:50:50.600Z,22.40
2023-05-20T12:53:18.669Z,22.40
2023-05-20T12:55:46.745Z,22.40
2023-05-20T12:58:16.070Z,22.40
2023-05-20T13:00:44.131Z,22.50
2023-05-20T13:03:12.196Z,22.50
2023-05-20T13:05:40.386Z,22.50
2023-05-20T13:08:09.095Z,22.50
2023-05-20T13:10:37.698Z,22.50
2023-05-20T13:13:06.054Z,22.60
2023-05-20T13:15:35.600Z,22.60
2023-05-20T13:18:06.280Z,22.60
2023-05-20T13:20:35.478Z,22.60
2023-05-20T13:23:03.688Z,22.70
2023-05-20T13:25:31.893Z,22.70
2023-05-20T13:28:00.013Z,22.70
2023-05-20T13:30:28.561Z,22.70
2023-05-20T13:32:57.918Z,22.70
2023-05-20T13:35:27.031Z,22.80
2023-05-20T13:37:55.046Z,22.80
2023-05-20T13:40:23.467Z,22.80
2023-05-20T13:42:51.393Z,22.80
2023-05-20T13:45:19.705Z,22.90
2023-05-20T13:47:47.777Z,22.90
2023-05-20T13:50:17.220Z,22.90
2023-05-20T13:52:45.140Z,22.90
2023-05-20T13:55:13.240Z,23.00
2023-05-20T13:57:41.164Z,23.00
2023-05-20T14:00:10.946Z,23.00
2023-05-20T14:02:39.287Z,23.10
2023-05-20T14:05:08.881Z,23.10
2023-05-20T14:07:39.204Z,23.10
2023-05-20T14:10:09.241Z,23.10
2023-05-20T14:12:37.222Z,23.20
2023-05-20T14:15:06.102Z,23.20
2023-05-20T14:17:34.053Z,23.20
2023-05-20T14:20:02.007Z,23.20
2023-05-20T14:22:29.936Z,23.30
2023-05-20T14:24:59.506Z,23.30
2023-05-20T14:27:27.454Z,23.30
2023-05-20T14:29:55.429Z,23.40
2023-05-20T14:32:23.439Z,23.40
2023-05-20T14:34:53.774Z,23.40
2023-05-20T14:37:22.970Z,23.40
2023-05-20T14:39:50.985Z,23.40
2023-05-20T14:42:20.364Z,23.50
2023-05-20T14:44:49.669Z,23.50
2023-05-20T14:47:21.402Z,23.50
2023-05-20T14:49:51.257Z,23.50
2023-05-20T14:52:20.050Z,23.60
2023-05-20T14:54:48.028Z,23.60
2023-05-20T14:57:16.745Z,23.60
2023-05-20T14:59:46.424Z,23.60
2023-05-20T15:02:15.832Z,23.70
2023-05-20T15:04:46.396Z,23.70
2023-05-20T15:07:14.761Z,23.70
2023-05-20T15:09:43.679Z,23.70
2023-05-20T15:12:12.312Z,23.70
2023-05-20T15:14:40.316Z,23.70
2023-05-20T15:17:09.701Z,23.70
2023-05-20T15:19:41.277Z,23.70
2023-05-20T15:22:09.818Z,23.80
2023-05-20T15:24:37.762Z,23.80
2023-05-20T15:27:06.517Z,23.80
2023-05-20T15:29:35.109Z,23.80
2023-05-20T15:32:03.285Z,23.90
2023-05-20T15:34:32.660Z,23.90
2023-05-20T15:37:00.646Z,23.90
2023-05-20T15:39:29.119Z,23.90
2023-05-20T15:41:59.455Z,24.00
2023-05-20T15:44:38.832Z,24.00
2023-05-20T15:47:06.873Z,24.00
2023-05-20T15:49:36.188Z,24.00
2023-05-20T15:52:05.004Z,24.00
2023-05-20T15:54:33.245Z,24.00
2023-05-20T15:57:02.464Z,24.00
2023-05-20T15:59:30.517Z,24.00
2023-05-20T16:01:58.530Z,24.00
2023-05-20T16:04:26.632Z,24.10
2023-05-20T16:06:55.959Z,24.10
2023-05-20T16:09:23.891Z,24.10
2023-05-20T16:11:51.826Z,24.10
2023-05-20T16:14:19.761Z,24.10
2023-05-20T16:16:47.792Z,24.10
2023-05-20T16:19:16.201Z,24.10
2023-05-20T16:21:44.280Z,24.10
2023-05-20T16:24:13.682Z,24.10
2023-05-20T16:26:41.753Z,24.10
2023-05-20T16:29:09.730Z,24.10
2023-05-20T16:31:37.952Z,24.10
2023-05-20T16:34:06.563Z,24.20
2023-05-20T16:36:34.517Z,24.20
2023-05-20T16:39:02.476Z,24.20
2023-05-20T16:41:31.883Z,24.10
2023-05-20T16:44:00.066Z,24.20
2023-05-20T16:46:28.059Z,24.20
2023-05-20T16:48:56.235Z,24.20
2023-05-20T16:51:24.319Z,24.10
2023-05-20T16:53:52.237Z,24.10
2023-05-20T16:56:21.733Z,24.10
2023-05-20T16:58:52.972Z,24.10
2023-05-20T17:01:22.993Z,24.10
2023-05-20T17:03:51.125Z,24.10
2023-05-20T17:06:19.216Z,24.10
2023-05-20T17:08:47.363Z,24.10
2023-05-20T17:11:15.612Z,24.10
2023-05-20T17:13:43.552Z,24.00
2023-05-20T17:16:12.936Z,24.00
2023-05-20T17:18:41.215Z,24.00
2023-05-20T17:21:09.250Z,24.00
2023-05-20T17:23:37.207Z,24.00
2023-05-20T17:26:05.619Z,24.00
2023-05-20T17:28:33.531Z,24.00
2023-05-20T17:31:01.486Z,24.00
2023-05-20T17:33:31.499Z,23.90
2023-05-20T17:35:59.572Z,23.90
2023-05-20T17:38:27.628Z,24.00
2023-05-20T17:40:56.298Z,23.90
2023-05-20T17:43:25.180Z,23.90
2023-05-20T17:45:53.376Z,23.90
2023-05-20T17:48:21.401Z,23.90
2023-05-20T17:50:50.939Z,23.90
2023-05-20T17:53:21.983Z,23.90
2023-05-20T17:55:50.317Z,23.90
2023-05-20T17:58:18.544Z,23.90
2023-05-20T18:00:46.509Z,23.80
2023-05-20T18:03:14.732Z,23.80
2023-05-20T18:05:42.720Z,23.80
2023-05-20T18:08:12.123Z,23.80
2023-05-20T18:10:40.108Z,23.80
2023-05-20T18:13:08.314Z,23.80
2023-05-20T18:15:36.289Z,23.80
2023-05-20T18:18:04.383Z,23.80
2023-05-20T18:20:32.583Z,23.80
2023-05-20T18:23:00.621Z,23.80
2023-05-20T18:25:29.927Z,23.70
2023-05-20T18:27:57.926Z,23.70
2023-05-20T18:30:26.177Z,23.70
2023-05-20T18:32:54.122Z,23.70
2023-05-20T18:35:22.528Z,23.70
2023-05-20T18:37:51.402Z,23.60
2023-05-20T18:40:20.519Z,23.60
2023-05-20T18:42:49.928Z,23.60
2023-05-20T18:45:18.031Z,23.60
2023-05-20T18:47:46.127Z,23.60
2023-05-20T18:50:14.283Z,23.60
2023-05-20T18:52:42.241Z,23.60
2023-05-20T18:55:10.724Z,23.50
2023-05-20T18:57:39.183Z,23.50
2023-05-20T19:00:12.284Z,23.40
2023-05-20T19:02:41.101Z,23.40
2023-05-20T19:05:11.659Z,23.40
2023-05-20T19:07:40.088Z,23.30
2023-05-20T19:10:09.774Z,23.30
2023-05-20T19:12:37.744Z,23.30
2023-05-20T19:15:08.855Z,23.30
2023-05-20T19:17:36.839Z,23.30
2023-05-20T19:20:07.121Z,23.30
2023-05-20T19:22:35.416Z,23.20
2023-05-20T19:25:03.592Z,23.20
2023-05-20T19:27:31.670Z,23.20
2023-05-20T19:29:59.624Z,23.20
2023-05-20T19:32:28.910Z,23.10
2023-05-20T19:34:57.151Z,23.10
2023-05-20T19:37:25.420Z,23.10
2023-05-20T19:39:53.471Z,23.10
2023-05-20T19:42:21.658Z,23.10
2023-05-20T19:44:50.109Z,23.10
2023-05-20T19:47:18.216Z,23.10
2023-05-20T19:49:47.561Z,23.00
2023-05-20T19:52:15.675Z,23.00
2023-05-20T19:54:43.626Z,23.00
2023-05-20T19:57:12.125Z,23.00
2023-05-20T19:59:40.159Z,22.90
2023-05-20T20:02:08.297Z,22.90
2023-05-20T20:04:36.328Z,22.90
2023-05-20T20:07:07.545Z,22.90
2023-05-20T20:09:35.945Z,22.90
2023-05-20T20:12:05.235Z,22.90
2023-05-20T20:14:33.921Z,22.90
2023-05-20T20:17:01.838Z,22.80
2023-05-20T20:19:29.902Z,22.80
2023-05-20T20:21:58.283Z,22.80
2023-05-20T20:24:27.658Z,22.80
2023-05-20T20:26:56.912Z,22.80
2023-05-20T20:29:25.038Z,22.70
2023-05-20T20:31:53.304Z,22.70
2023-05-20T20:34:21.978Z,22.70
2023-05-20T20:36:51.245Z,22.60
2023-05-20T20:39:19.903Z,22.70
2023-05-20T20:41:50.806Z,22.60
2023-05-20T20:44:22.398Z,22.60
2023-05-20T20:46:51.772Z,22.60
2023-05-20T20:49:20.711Z,22.60
2023-05-20T20:51:50.248Z,22.60
2023-05-20T20:54:18.333Z,22.60
2023-05-20T20:56:47.232Z,22.60
2023-05-20T20:59:16.858Z,22.60
2023-05-20T21:01:45.421Z,22.60
2023-05-20T21:04:13.825Z,22.60
2023-05-20T21:06:45.826Z,22.60
2023-05-20T21:09:14.226Z,22.60
2023-05-20T21:11:43.069Z,22.60
2023-05-20T21:14:11.950Z,22.50
2023-05-20T21:16:42.183Z,22.60
2023-05-20T21:19:10.433Z,22.60
2023-05-20T21:21:38.481Z,22.60
2023-05-20T21:24:07.237Z,22.60
2023-05-20T21:26:35.231Z,22.60
2023-05-20T21:29:03.136Z,22.50
2023-05-20T21:31:31.353Z,22.50
2023-05-20T21:34:00.623Z,22.50
2023-05-20T21:36:28.619Z,22.50
2023-05-20T21:38:57.024Z,22.50
2023-05-20T21:41:25.015Z,22.50
2023-05-20T21:43:53.245Z,22.40
2023-05-20T21:46:21.463Z,22.50
2023-05-20T21:48:49.519Z,22.50
2023-05-20T21:51:18.946Z,22.40
2023-05-20T21:53:47.005Z,22.40
2023-05-20T21:56:15.070Z,22.40
2023-05-20T21:58:43.020Z,22.40
2023-05-20T22:01:11.000Z,22.40
2023-05-20T22:03:39.891Z,22.30
2023-05-20T22:06:08.010Z,22.30
2023-05-20T22:08:37.270Z,22.30
2023-05-20T22:11:07.110Z,22.30
2023-05-20T22:13:36.444Z,22.20
2023-05-20T22:16:05.388Z,22.30
2023-05-20T22:18:33.425Z,22.30
2023-05-20T22:21:01.617Z,22.20
2023-05-20T22:23:29.956Z,22.20
2023-05-20T22:25:59.283Z,22.20
2023-05-20T22:28:27.262Z,22.20
2023-05-20T22:30:55.555Z,22.20
2023-05-20T22:33:24.359Z,22.20
2023-05-20T22:35:53.480Z,22.20
2023-05-20T22:38:21.975Z,22.10
2023-05-20T22:40:49.883Z,22.10
2023-05-20T22:43:23.159Z,22.10
2023-05-20T22:45:51.166Z,22.10
2023-05-20T22:48:19.297Z,22.10
2023-05-20T22:50:48.194Z,22.10
2023-05-20T22:53:16.508Z,22.00
2023-05-20T22:55:44.489Z,22.00
2023-05-20T22:58:12.595Z,22.00
2023-05-20T23:00:41.940Z,22.00
2023-05-20T23:03:09.958Z,22.00
2023-05-20T23:05:38.176Z,22.00
2023-05-20T23:08:07.390Z,22.00
2023-05-20T23:10:35.352Z,22.00
2023-05-20T23:13:03.360Z,21.90
2023-05-20T23:15:31.467Z,21.90
2023-05-20T23:18:00.913Z,21.90
2023-05-20T23:20:29.456Z,21.90
2023-05-20T23:22:58.054Z,21.90
2023-05-20T23:25:26.902Z,21.90
2023-05-20T23:27:54.886Z,21.90
2023-05-20T23:30:22.847Z,21.80
2023-05-20T23:32:51.278Z,21.80
2023-05-20T23:35:20.832Z,21.80
2023-05-20T23:37:48.787Z,21.80
2023-05-20T23:40:16.735Z,21.80
2023-05-20T23:42:44.669Z,21.80
2023-05-20T23:45:13.549Z,21.70
2023-05-20T23:47:42.031Z,21.70
2023-05-20T23:50:11.349Z,21.70
2023-05-20T23:52:40.898Z,21.70
2023-05-20T23:55:12.847Z,21.70
2023-05-20T23:57:40.968Z,21.70
